sensor_id;sensor_type;location;lat;lon;timestamp;P1;durP1;ratioP1;P2;durP2;ratioP2
43813;SDS011;29669;55.706;37.656;2022-09-09T00:04:40;1.60;;;1.50;;
43813;SDS011;29669;55.706;37.656;2022-09-09T00:08:02;2.85;;;1.75;;
43813;SDS011;29669;55.706;37.656;2022-09-09T00:11:26;3.15;;;1.30;;
43813;SDS011;29669;55.706;37.656;2022-09-09T00:14:56;2.47;;;1.35;;
43813;SDS011;29669;55.706;37.656;2022-09-09T00:21:47;2.10;;;1.52;;
43813;SDS011;29669;55.706;37.656;2022-09-09T00:25:42;6.97;;;1.50;;
43813;SDS011;29669;55.706;37.656;2022-09-09T00:32:33;3.50;;;2.00;;
43813;SDS011;29669;55.706;37.656;2022-09-09T00:35:54;3.55;;;1.85;;
43813;SDS011;29669;55.706;37.656;2022-09-09T00:42:54;5.03;;;1.90;;
43813;SDS011;29669;55.706;37.656;2022-09-09T00:54:08;3.00;;;1.40;;
43813;SDS011;29669;55.706;37.656;2022-09-09T00:57:32;1.92;;;1.52;;
43813;SDS011;29669;55.706;37.656;2022-09-09T01:01:13;2.90;;;1.90;;
43813;SDS011;29669;55.706;37.656;2022-09-09T01:04:34;1.92;;;1.67;;
43813;SDS011;29669;55.706;37.656;2022-09-09T01:07:58;2.35;;;1.55;;
43813;SDS011;29669;55.706;37.656;2022-09-09T01:15:20;4.63;;;2.13;;
43813;SDS011;29669;55.706;37.656;2022-09-09T01:18:46;2.22;;;1.70;;
43813;SDS011;29669;55.706;37.656;2022-09-09T01:29:39;15.25;;;2.03;;
43813;SDS011;29669;55.706;37.656;2022-09-09T01:33:02;5.60;;;1.67;;
43813;SDS011;29669;55.706;37.656;2022-09-09T01:36:25;2.22;;;1.80;;
43813;SDS011;29669;55.706;37.656;2022-09-09T01:39:51;2.37;;;1.63;;
43813;SDS011;29669;55.706;37.656;2022-09-09T01:43:12;4.70;;;1.92;;
43813;SDS011;29669;55.706;37.656;2022-09-09T01:46:34;3.65;;;1.90;;
43813;SDS011;29669;55.706;37.656;2022-09-09T01:49:55;2.65;;;1.75;;
43813;SDS011;29669;55.706;37.656;2022-09-09T01:53:16;2.92;;;2.33;;
43813;SDS011;29669;55.706;37.656;2022-09-09T02:00:36;2.05;;;1.85;;
43813;SDS011;29669;55.706;37.656;2022-09-09T02:04:08;1.98;;;1.80;;
43813;SDS011;29669;55.706;37.656;2022-09-09T02:07:59;3.70;;;1.90;;
43813;SDS011;29669;55.706;37.656;2022-09-09T02:11:26;3.38;;;2.08;;
43813;SDS011;29669;55.706;37.656;2022-09-09T02:15:00;2.40;;;2.10;;
43813;SDS011;29669;55.706;37.656;2022-09-09T02:18:30;4.90;;;2.10;;
43813;SDS011;29669;55.706;37.656;2022-09-09T02:22:03;2.28;;;1.73;;
43813;SDS011;29669;55.706;37.656;2022-09-09T02:25:26;2.90;;;1.83;;
43813;SDS011;29669;55.706;37.656;2022-09-09T02:28:54;2.83;;;1.90;;
43813;SDS011;29669;55.706;37.656;2022-09-09T02:32:12;5.05;;;2.03;;
43813;SDS011;29669;55.706;37.656;2022-09-09T02:35:43;5.07;;;2.30;;
43813;SDS011;29669;55.706;37.656;2022-09-09T02:39:06;2.17;;;1.48;;
43813;SDS011;29669;55.706;37.656;2022-09-09T02:42:29;2.85;;;1.98;;
43813;SDS011;29669;55.706;37.656;2022-09-09T02:45:57;2.13;;;1.83;;
43813;SDS011;29669;55.706;37.656;2022-09-09T02:52:54;2.10;;;1.90;;
43813;SDS011;29669;55.706;37.656;2022-09-09T02:56:19;2.33;;;1.73;;
43813;SDS011;29669;55.706;37.656;2022-09-09T02:59:45;4.03;;;1.98;;
43813;SDS011;29669;55.706;37.656;2022-09-09T03:03:07;2.55;;;1.95;;
43813;SDS011;29669;55.706;37.656;2022-09-09T03:06:31;3.13;;;2.15;;
43813;SDS011;29669;55.706;37.656;2022-09-09T03:09:54;2.50;;;1.85;;
43813;SDS011;29669;55.706;37.656;2022-09-09T03:13:15;2.17;;;1.92;;
43813;SDS011;29669;55.706;37.656;2022-09-09T03:16:36;4.38;;;2.17;;
43813;SDS011;29669;55.706;37.656;2022-09-09T03:19:58;5.13;;;2.00;;
43813;SDS011;29669;55.706;37.656;2022-09-09T03:23:19;7.00;;;1.83;;
43813;SDS011;29669;55.706;37.656;2022-09-09T03:26:40;1.85;;;1.70;;
43813;SDS011;29669;55.706;37.656;2022-09-09T03:30:03;3.60;;;2.55;;
43813;SDS011;29669;55.706;37.656;2022-09-09T03:33:24;8.05;;;2.65;;
43813;SDS011;29669;55.706;37.656;2022-09-09T03:36:47;6.90;;;2.30;;
43813;SDS011;29669;55.706;37.656;2022-09-09T03:40:09;3.80;;;2.35;;
43813;SDS011;29669;55.706;37.656;2022-09-09T03:43:31;2.30;;;1.90;;
43813;SDS011;29669;55.706;37.656;2022-09-09T03:46:53;4.25;;;2.13;;
43813;SDS011;29669;55.706;37.656;2022-09-09T03:50:14;5.45;;;2.42;;
43813;SDS011;29669;55.706;37.656;2022-09-09T03:53:35;3.45;;;2.10;;
43813;SDS011;29669;55.706;37.656;2022-09-09T03:56:58;4.07;;;2.20;;
43813;SDS011;29669;55.706;37.656;2022-09-09T04:00:19;3.55;;;2.38;;
43813;SDS011;29669;55.706;37.656;2022-09-09T04:03:40;3.20;;;1.88;;
43813;SDS011;29669;55.706;37.656;2022-09-09T04:07:01;5.63;;;2.45;;
43813;SDS011;29669;55.706;37.656;2022-09-09T04:10:22;5.18;;;2.70;;
43813;SDS011;29669;55.706;37.656;2022-09-09T04:13:43;4.28;;;2.42;;
43813;SDS011;29669;55.706;37.656;2022-09-09T04:17:04;2.80;;;2.40;;
43813;SDS011;29669;55.706;37.656;2022-09-09T04:20:25;4.13;;;2.10;;
43813;SDS011;29669;55.706;37.656;2022-09-09T04:23:46;3.42;;;2.50;;
43813;SDS011;29669;55.706;37.656;2022-09-09T04:27:07;3.70;;;2.13;;
43813;SDS011;29669;55.706;37.656;2022-09-09T04:30:29;4.35;;;2.50;;
43813;SDS011;29669;55.706;37.656;2022-09-09T04:33:50;3.35;;;2.40;;
43813;SDS011;29669;55.706;37.656;2022-09-09T04:37:11;8.43;;;3.60;;
43813;SDS011;29669;55.706;37.656;2022-09-09T04:40:33;7.05;;;3.25;;
43813;SDS011;29669;55.706;37.656;2022-09-09T04:43:57;3.08;;;2.47;;
43813;SDS011;29669;55.706;37.656;2022-09-09T04:47:11;5.43;;;2.75;;
43813;SDS011;29669;55.706;37.656;2022-09-09T04:50:32;3.92;;;2.60;;
43813;SDS011;29669;55.706;37.656;2022-09-09T04:53:54;3.08;;;2.33;;
43813;SDS011;29669;55.706;37.656;2022-09-09T04:57:17;4.05;;;2.22;;
43813;SDS011;29669;55.706;37.656;2022-09-09T05:00:38;4.10;;;2.30;;
43813;SDS011;29669;55.706;37.656;2022-09-09T05:03:59;2.60;;;2.28;;
43813;SDS011;29669;55.706;37.656;2022-09-09T05:07:20;4.82;;;2.53;;
43813;SDS011;29669;55.706;37.656;2022-09-09T05:10:41;5.15;;;3.55;;
43813;SDS011;29669;55.706;37.656;2022-09-09T05:14:02;5.88;;;3.45;;
43813;SDS011;29669;55.706;37.656;2022-09-09T05:17:26;4.15;;;3.20;;
43813;SDS011;29669;55.706;37.656;2022-09-09T05:20:48;7.57;;;3.75;;
43813;SDS011;29669;55.706;37.656;2022-09-09T05:24:10;3.60;;;2.95;;
43813;SDS011;29669;55.706;37.656;2022-09-09T05:27:31;6.07;;;2.90;;
43813;SDS011;29669;55.706;37.656;2022-09-09T05:31:01;5.82;;;2.80;;
43813;SDS011;29669;55.706;37.656;2022-09-09T05:34:26;3.03;;;2.30;;
43813;SDS011;29669;55.706;37.656;2022-09-09T05:37:47;4.85;;;2.35;;
43813;SDS011;29669;55.706;37.656;2022-09-09T05:41:09;4.22;;;1.95;;
43813;SDS011;29669;55.706;37.656;2022-09-09T05:44:34;4.95;;;2.20;;
43813;SDS011;29669;55.706;37.656;2022-09-09T05:47:56;5.97;;;3.20;;
43813;SDS011;29669;55.706;37.656;2022-09-09T05:51:37;8.07;;;2.58;;
43813;SDS011;29669;55.706;37.656;2022-09-09T05:54:58;9.30;;;3.58;;
43813;SDS011;29669;55.706;37.656;2022-09-09T05:58:19;3.75;;;2.22;;
43813;SDS011;29669;55.706;37.656;2022-09-09T06:01:43;3.95;;;2.22;;
43813;SDS011;29669;55.706;37.656;2022-09-09T06:05:08;2.00;;;1.50;;
43813;SDS011;29669;55.706;37.656;2022-09-09T06:08:30;1.38;;;1.27;;
43813;SDS011;29669;55.706;37.656;2022-09-09T06:11:53;6.03;;;3.05;;
43813;SDS011;29669;55.706;37.656;2022-09-09T06:15:14;3.15;;;1.70;;
43813;SDS011;29669;55.706;37.656;2022-09-09T06:18:36;2.22;;;1.67;;
43813;SDS011;29669;55.706;37.656;2022-09-09T06:21:58;2.70;;;1.50;;
43813;SDS011;29669;55.706;37.656;2022-09-09T06:25:19;4.45;;;1.70;;
43813;SDS011;29669;55.706;37.656;2022-09-09T06:28:41;2.35;;;1.67;;
43813;SDS011;29669;55.706;37.656;2022-09-09T06:32:03;4.03;;;2.00;;
43813;SDS011;29669;55.706;37.656;2022-09-09T06:35:24;1.70;;;1.40;;
43813;SDS011;29669;55.706;37.656;2022-09-09T06:38:45;4.38;;;2.20;;
43813;SDS011;29669;55.706;37.656;2022-09-09T06:42:07;2.88;;;1.70;;
43813;SDS011;29669;55.706;37.656;2022-09-09T06:45:38;1.60;;;1.20;;
43813;SDS011;29669;55.706;37.656;2022-09-09T06:48:59;4.85;;;2.03;;
43813;SDS011;29669;55.706;37.656;2022-09-09T06:52:14;4.93;;;1.60;;
43813;SDS011;29669;55.706;37.656;2022-09-09T06:55:36;3.63;;;1.90;;
43813;SDS011;29669;55.706;37.656;2022-09-09T06:58:59;2.05;;;1.42;;
43813;SDS011;29669;55.706;37.656;2022-09-09T07:02:24;3.17;;;1.10;;
43813;SDS011;29669;55.706;37.656;2022-09-09T07:05:53;5.32;;;1.30;;
43813;SDS011;29669;55.706;37.656;2022-09-09T07:09:15;3.80;;;2.33;;
43813;SDS011;29669;55.706;37.656;2022-09-09T07:12:37;2.78;;;1.65;;
43813;SDS011;29669;55.706;37.656;2022-09-09T07:16:11;3.97;;;1.80;;
43813;SDS011;29669;55.706;37.656;2022-09-09T07:19:35;5.32;;;1.67;;
43813;SDS011;29669;55.706;37.656;2022-09-09T07:22:57;5.50;;;2.40;;
43813;SDS011;29669;55.706;37.656;2022-09-09T07:26:18;2.67;;;1.48;;
43813;SDS011;29669;55.706;37.656;2022-09-09T07:29:42;1.45;;;1.10;;
43813;SDS011;29669;55.706;37.656;2022-09-09T07:33:04;3.25;;;1.88;;
43813;SDS011;29669;55.706;37.656;2022-09-09T07:36:26;2.17;;;1.48;;
43813;SDS011;29669;55.706;37.656;2022-09-09T07:39:49;3.72;;;1.48;;
43813;SDS011;29669;55.706;37.656;2022-09-09T07:43:10;1.30;;;1.08;;
43813;SDS011;29669;55.706;37.656;2022-09-09T07:46:33;1.50;;;1.10;;
43813;SDS011;29669;55.706;37.656;2022-09-09T07:50:01;2.97;;;1.20;;
43813;SDS011;29669;55.706;37.656;2022-09-09T07:53:23;4.75;;;1.38;;
43813;SDS011;29669;55.706;37.656;2022-09-09T07:56:44;1.10;;;1.00;;
43813;SDS011;29669;55.706;37.656;2022-09-09T08:00:08;2.05;;;1.38;;
43813;SDS011;29669;55.706;37.656;2022-09-09T08:03:31;3.97;;;1.75;;
43813;SDS011;29669;55.706;37.656;2022-09-09T08:06:53;1.65;;;1.15;;
43813;SDS011;29669;55.706;37.656;2022-09-09T08:10:22;6.10;;;1.58;;
43813;SDS011;29669;55.706;37.656;2022-09-09T08:13:43;3.10;;;1.40;;
43813;SDS011;29669;55.706;37.656;2022-09-09T08:17:08;2.65;;;1.60;;
43813;SDS011;29669;55.706;37.656;2022-09-09T08:20:30;2.15;;;1.30;;
43813;SDS011;29669;55.706;37.656;2022-09-09T08:23:52;1.45;;;1.27;;
43813;SDS011;29669;55.706;37.656;2022-09-09T08:27:16;8.23;;;1.80;;
43813;SDS011;29669;55.706;37.656;2022-09-09T08:30:37;0.73;;;0.73;;
43813;SDS011;29669;55.706;37.656;2022-09-09T08:33:58;1.15;;;1.00;;
43813;SDS011;29669;55.706;37.656;2022-09-09T08:37:21;2.33;;;1.65;;
43813;SDS011;29669;55.706;37.656;2022-09-09T08:40:42;2.05;;;1.70;;
43813;SDS011;29669;55.706;37.656;2022-09-09T08:51:19;2.35;;;1.55;;
43813;SDS011;29669;55.706;37.656;2022-09-09T08:54:40;1.40;;;1.30;;
43813;SDS011;29669;55.706;37.656;2022-09-09T08:58:04;1.98;;;1.63;;
43813;SDS011;29669;55.706;37.656;2022-09-09T09:01:49;1.42;;;1.33;;
43813;SDS011;29669;55.706;37.656;2022-09-09T09:05:28;8.43;;;2.72;;
43813;SDS011;29669;55.706;37.656;2022-09-09T09:12:27;6.07;;;2.70;;
43813;SDS011;29669;55.706;37.656;2022-09-09T09:15:55;7.10;;;3.70;;
43813;SDS011;29669;55.706;37.656;2022-09-09T09:19:23;3.70;;;3.10;;
43813;SDS011;29669;55.706;37.656;2022-09-09T09:26:06;1.55;;;1.40;;
43813;SDS011;29669;55.706;37.656;2022-09-09T09:29:30;3.45;;;2.53;;
43813;SDS011;29669;55.706;37.656;2022-09-09T09:33:14;1.77;;;1.48;;
43813;SDS011;29669;55.706;37.656;2022-09-09T09:36:51;6.28;;;1.85;;
43813;SDS011;29669;55.706;37.656;2022-09-09T09:40:18;2.05;;;1.38;;
43813;SDS011;29669;55.706;37.656;2022-09-09T09:43:41;2.95;;;1.60;;
43813;SDS011;29669;55.706;37.656;2022-09-09T09:47:15;2.70;;;1.92;;
43813;SDS011;29669;55.706;37.656;2022-09-09T09:50:58;1.38;;;1.10;;
43813;SDS011;29669;55.706;37.656;2022-09-09T09:57:49;2.53;;;2.00;;
43813;SDS011;29669;55.706;37.656;2022-09-09T10:01:22;3.30;;;1.85;;
43813;SDS011;29669;55.706;37.656;2022-09-09T10:04:45;3.05;;;1.52;;
43813;SDS011;29669;55.706;37.656;2022-09-09T10:11:32;2.60;;;1.33;;
43813;SDS011;29669;55.706;37.656;2022-09-09T10:18:53;2.35;;;1.63;;
43813;SDS011;29669;55.706;37.656;2022-09-09T10:22:26;2.67;;;1.77;;
43813;SDS011;29669;55.706;37.656;2022-09-09T10:36:51;1.75;;;1.50;;
43813;SDS011;29669;55.706;37.656;2022-09-09T10:40:33;4.53;;;3.20;;
43813;SDS011;29669;55.706;37.656;2022-09-09T10:51:11;1.48;;;1.38;;
43813;SDS011;29669;55.706;37.656;2022-09-09T10:58:09;3.45;;;1.33;;
43813;SDS011;29669;55.706;37.656;2022-09-09T11:01:41;1.10;;;1.00;;
43813;SDS011;29669;55.706;37.656;2022-09-09T11:08:54;3.22;;;1.17;;
43813;SDS011;29669;55.706;37.656;2022-09-09T11:12:18;1.65;;;1.52;;
43813;SDS011;29669;55.706;37.656;2022-09-09T11:15:41;6.00;;;1.48;;
43813;SDS011;29669;55.706;37.656;2022-09-09T11:26:36;2.78;;;1.67;;
43813;SDS011;29669;55.706;37.656;2022-09-09T11:30:05;9.30;;;4.75;;
43813;SDS011;29669;55.706;37.656;2022-09-09T11:38:07;2.90;;;2.10;;
43813;SDS011;29669;55.706;37.656;2022-09-09T11:41:36;3.25;;;1.40;;
43813;SDS011;29669;55.706;37.656;2022-09-09T11:44:58;5.25;;;1.50;;
43813;SDS011;29669;55.706;37.656;2022-09-09T11:49:01;2.00;;;1.55;;
43813;SDS011;29669;55.706;37.656;2022-09-09T11:52:36;2.90;;;1.35;;
43813;SDS011;29669;55.706;37.656;2022-09-09T11:56:11;4.60;;;1.48;;
43813;SDS011;29669;55.706;37.656;2022-09-09T11:59:34;4.07;;;1.52;;
43813;SDS011;29669;55.706;37.656;2022-09-09T12:02:57;3.88;;;1.70;;
43813;SDS011;29669;55.706;37.656;2022-09-09T12:09:52;3.55;;;1.83;;
43813;SDS011;29669;55.706;37.656;2022-09-09T12:13:22;8.27;;;1.38;;
43813;SDS011;29669;55.706;37.656;2022-09-09T12:16:45;2.15;;;1.30;;
43813;SDS011;29669;55.706;37.656;2022-09-09T12:20:10;4.70;;;2.10;;
43813;SDS011;29669;55.706;37.656;2022-09-09T12:23:49;2.72;;;1.52;;
43813;SDS011;29669;55.706;37.656;2022-09-09T12:34:34;2.33;;;1.80;;
43813;SDS011;29669;55.706;37.656;2022-09-09T12:37:57;2.67;;;1.38;;
43813;SDS011;29669;55.706;37.656;2022-09-09T12:41:24;7.47;;;1.90;;
43813;SDS011;29669;55.706;37.656;2022-09-09T12:44:56;2.58;;;1.70;;
43813;SDS011;29669;55.706;37.656;2022-09-09T12:48:20;3.60;;;1.80;;
43813;SDS011;29669;55.706;37.656;2022-09-09T12:51:50;5.32;;;2.30;;
43813;SDS011;29669;55.706;37.656;2022-09-09T12:55:18;4.00;;;2.15;;
43813;SDS011;29669;55.706;37.656;2022-09-09T12:58:44;3.00;;;1.65;;
43813;SDS011;29669;55.706;37.656;2022-09-09T13:02:23;4.00;;;1.83;;
43813;SDS011;29669;55.706;37.656;2022-09-09T13:05:46;5.50;;;2.10;;
43813;SDS011;29669;55.706;37.656;2022-09-09T13:09:08;4.05;;;1.60;;
43813;SDS011;29669;55.706;37.656;2022-09-09T13:12:29;6.53;;;2.00;;
43813;SDS011;29669;55.706;37.656;2022-09-09T13:15:51;7.00;;;2.63;;
43813;SDS011;29669;55.706;37.656;2022-09-09T13:19:14;7.15;;;4.55;;
43813;SDS011;29669;55.706;37.656;2022-09-09T13:22:41;4.15;;;1.95;;
43813;SDS011;29669;55.706;37.656;2022-09-09T13:29:27;3.55;;;1.80;;
43813;SDS011;29669;55.706;37.656;2022-09-09T13:36:33;3.90;;;1.80;;
43813;SDS011;29669;55.706;37.656;2022-09-09T13:39:55;2.78;;;1.98;;
43813;SDS011;29669;55.706;37.656;2022-09-09T13:43:18;2.85;;;1.88;;
43813;SDS011;29669;55.706;37.656;2022-09-09T13:46:43;6.72;;;3.70;;
43813;SDS011;29669;55.706;37.656;2022-09-09T13:50:15;3.78;;;1.80;;
43813;SDS011;29669;55.706;37.656;2022-09-09T13:53:33;5.60;;;2.13;;
43813;SDS011;29669;55.706;37.656;2022-09-09T13:56:54;7.80;;;2.58;;
43813;SDS011;29669;55.706;37.656;2022-09-09T14:00:15;9.25;;;2.17;;
43813;SDS011;29669;55.706;37.656;2022-09-09T14:03:36;7.85;;;3.40;;
43813;SDS011;29669;55.706;37.656;2022-09-09T14:06:57;6.82;;;2.03;;
43813;SDS011;29669;55.706;37.656;2022-09-09T14:10:18;6.03;;;2.90;;
43813;SDS011;29669;55.706;37.656;2022-09-09T14:13:39;7.32;;;2.13;;
43813;SDS011;29669;55.706;37.656;2022-09-09T14:17:00;3.83;;;2.20;;
43813;SDS011;29669;55.706;37.656;2022-09-09T14:20:22;2.47;;;1.88;;
43813;SDS011;29669;55.706;37.656;2022-09-09T14:23:43;4.10;;;2.20;;
43813;SDS011;29669;55.706;37.656;2022-09-09T14:27:04;5.03;;;2.90;;
43813;SDS011;29669;55.706;37.656;2022-09-09T14:30:25;4.97;;;2.20;;
43813;SDS011;29669;55.706;37.656;2022-09-09T14:33:46;6.28;;;3.22;;
43813;SDS011;29669;55.706;37.656;2022-09-09T14:37:07;8.15;;;2.60;;
43813;SDS011;29669;55.706;37.656;2022-09-09T14:40:28;6.63;;;2.63;;
43813;SDS011;29669;55.706;37.656;2022-09-09T14:43:49;3.65;;;2.33;;
43813;SDS011;29669;55.706;37.656;2022-09-09T14:47:10;8.63;;;2.35;;
43813;SDS011;29669;55.706;37.656;2022-09-09T14:50:31;1.67;;;1.55;;
43813;SDS011;29669;55.706;37.656;2022-09-09T14:53:57;2.50;;;2.17;;
43813;SDS011;29669;55.706;37.656;2022-09-09T14:57:19;4.43;;;2.22;;
43813;SDS011;29669;55.706;37.656;2022-09-09T15:00:40;2.53;;;1.63;;
43813;SDS011;29669;55.706;37.656;2022-09-09T15:04:03;5.82;;;2.60;;
43813;SDS011;29669;55.706;37.656;2022-09-09T15:07:25;3.03;;;1.73;;
43813;SDS011;29669;55.706;37.656;2022-09-09T15:10:46;5.20;;;1.90;;
43813;SDS011;29669;55.706;37.656;2022-09-09T15:14:07;2.45;;;1.70;;
43813;SDS011;29669;55.706;37.656;2022-09-09T15:17:31;2.65;;;1.67;;
43813;SDS011;29669;55.706;37.656;2022-09-09T15:20:52;4.05;;;2.63;;
43813;SDS011;29669;55.706;37.656;2022-09-09T15:24:13;1.88;;;1.70;;
43813;SDS011;29669;55.706;37.656;2022-09-09T15:27:34;2.85;;;1.95;;
43813;SDS011;29669;55.706;37.656;2022-09-09T15:30:55;10.25;;;1.98;;
43813;SDS011;29669;55.706;37.656;2022-09-09T15:34:16;4.43;;;2.30;;
43813;SDS011;29669;55.706;37.656;2022-09-09T15:37:37;2.95;;;1.90;;
43813;SDS011;29669;55.706;37.656;2022-09-09T15:40:58;4.57;;;2.83;;
43813;SDS011;29669;55.706;37.656;2022-09-09T15:44:19;6.90;;;2.63;;
43813;SDS011;29669;55.706;37.656;2022-09-09T15:47:40;3.70;;;2.55;;
43813;SDS011;29669;55.706;37.656;2022-09-09T15:51:21;2.95;;;2.00;;
43813;SDS011;29669;55.706;37.656;2022-09-09T15:54:48;6.32;;;3.63;;
43813;SDS011;29669;55.706;37.656;2022-09-09T15:58:09;6.13;;;2.08;;
43813;SDS011;29669;55.706;37.656;2022-09-09T16:01:30;3.85;;;1.92;;
43813;SDS011;29669;55.706;37.656;2022-09-09T16:04:53;4.50;;;1.40;;
43813;SDS011;29669;55.706;37.656;2022-09-09T16:08:14;7.82;;;3.15;;
43813;SDS011;29669;55.706;37.656;2022-09-09T16:11:36;9.10;;;4.03;;
43813;SDS011;29669;55.706;37.656;2022-09-09T16:14:58;11.35;;;4.32;;
43813;SDS011;29669;55.706;37.656;2022-09-09T16:18:19;5.20;;;2.42;;
43813;SDS011;29669;55.706;37.656;2022-09-09T16:21:41;6.78;;;2.65;;
43813;SDS011;29669;55.706;37.656;2022-09-09T16:25:03;5.35;;;3.00;;
43813;SDS011;29669;55.706;37.656;2022-09-09T16:28:28;9.63;;;4.40;;
43813;SDS011;29669;55.706;37.656;2022-09-09T16:31:49;9.38;;;2.80;;
43813;SDS011;29669;55.706;37.656;2022-09-09T16:35:13;4.22;;;2.70;;
43813;SDS011;29669;55.706;37.656;2022-09-09T16:38:35;12.35;;;3.22;;
43813;SDS011;29669;55.706;37.656;2022-09-09T16:41:57;10.15;;;2.95;;
43813;SDS011;29669;55.706;37.656;2022-09-09T16:45:19;9.18;;;5.38;;
43813;SDS011;29669;55.706;37.656;2022-09-09T16:48:41;8.45;;;3.40;;
43813;SDS011;29669;55.706;37.656;2022-09-09T16:52:03;11.45;;;3.88;;
43813;SDS011;29669;55.706;37.656;2022-09-09T16:55:26;7.40;;;3.38;;
43813;SDS011;29669;55.706;37.656;2022-09-09T16:58:51;5.07;;;3.10;;
43813;SDS011;29669;55.706;37.656;2022-09-09T17:02:13;5.43;;;3.00;;
43813;SDS011;29669;55.706;37.656;2022-09-09T17:05:39;12.52;;;4.05;;
43813;SDS011;29669;55.706;37.656;2022-09-09T17:09:01;6.32;;;3.63;;
43813;SDS011;29669;55.706;37.656;2022-09-09T17:12:24;9.55;;;3.83;;
43813;SDS011;29669;55.706;37.656;2022-09-09T17:15:48;7.03;;;4.43;;
43813;SDS011;29669;55.706;37.656;2022-09-09T17:19:09;7.07;;;3.88;;
43813;SDS011;29669;55.706;37.656;2022-09-09T17:22:31;14.55;;;6.32;;
43813;SDS011;29669;55.706;37.656;2022-09-09T17:25:56;12.65;;;5.45;;
43813;SDS011;29669;55.706;37.656;2022-09-09T17:29:17;10.60;;;5.85;;
43813;SDS011;29669;55.706;37.656;2022-09-09T17:32:38;9.55;;;5.20;;
43813;SDS011;29669;55.706;37.656;2022-09-09T17:36:02;8.68;;;5.18;;
43813;SDS011;29669;55.706;37.656;2022-09-09T17:39:31;11.88;;;6.50;;
43813;SDS011;29669;55.706;37.656;2022-09-09T17:42:53;12.30;;;5.57;;
43813;SDS011;29669;55.706;37.656;2022-09-09T17:46:15;11.00;;;5.35;;
43813;SDS011;29669;55.706;37.656;2022-09-09T17:49:37;12.73;;;4.63;;
43813;SDS011;29669;55.706;37.656;2022-09-09T17:52:58;11.13;;;4.80;;
43813;SDS011;29669;55.706;37.656;2022-09-09T17:56:19;10.45;;;4.57;;
43813;SDS011;29669;55.706;37.656;2022-09-09T17:59:44;10.10;;;5.00;;
43813;SDS011;29669;55.706;37.656;2022-09-09T18:03:10;9.50;;;4.25;;
43813;SDS011;29669;55.706;37.656;2022-09-09T18:06:33;10.50;;;5.30;;
43813;SDS011;29669;55.706;37.656;2022-09-09T18:09:56;9.32;;;4.57;;
43813;SDS011;29669;55.706;37.656;2022-09-09T18:13:17;9.27;;;4.57;;
43813;SDS011;29669;55.706;37.656;2022-09-09T18:16:38;7.32;;;4.05;;
43813;SDS011;29669;55.706;37.656;2022-09-09T18:20:00;8.63;;;4.47;;
43813;SDS011;29669;55.706;37.656;2022-09-09T18:23:21;10.75;;;4.05;;
43813;SDS011;29669;55.706;37.656;2022-09-09T18:26:43;8.80;;;4.32;;
43813;SDS011;29669;55.706;37.656;2022-09-09T18:30:04;10.38;;;4.68;;
43813;SDS011;29669;55.706;37.656;2022-09-09T18:33:25;9.60;;;4.25;;
43813;SDS011;29669;55.706;37.656;2022-09-09T18:36:47;14.10;;;4.50;;
43813;SDS011;29669;55.706;37.656;2022-09-09T18:40:10;13.23;;;4.47;;
43813;SDS011;29669;55.706;37.656;2022-09-09T18:43:31;14.52;;;5.00;;
43813;SDS011;29669;55.706;37.656;2022-09-09T18:46:52;13.20;;;5.88;;
43813;SDS011;29669;55.706;37.656;2022-09-09T18:50:13;9.00;;;4.95;;
43813;SDS011;29669;55.706;37.656;2022-09-09T18:53:35;10.60;;;4.78;;
43813;SDS011;29669;55.706;37.656;2022-09-09T18:56:57;12.05;;;6.03;;
43813;SDS011;29669;55.706;37.656;2022-09-09T19:00:18;12.05;;;5.20;;
43813;SDS011;29669;55.706;37.656;2022-09-09T19:03:39;18.15;;;6.13;;
43813;SDS011;29669;55.706;37.656;2022-09-09T19:07:00;11.40;;;5.75;;
43813;SDS011;29669;55.706;37.656;2022-09-09T19:10:21;20.30;;;4.45;;
43813;SDS011;29669;55.706;37.656;2022-09-09T19:13:51;19.40;;;6.13;;
43813;SDS011;29669;55.706;37.656;2022-09-09T19:17:17;16.95;;;6.15;;
43813;SDS011;29669;55.706;37.656;2022-09-09T19:20:39;16.00;;;6.05;;
43813;SDS011;29669;55.706;37.656;2022-09-09T19:24:04;15.48;;;5.63;;
43813;SDS011;29669;55.706;37.656;2022-09-09T19:27:36;12.50;;;5.38;;
43813;SDS011;29669;55.706;37.656;2022-09-09T19:31:07;13.25;;;5.40;;
43813;SDS011;29669;55.706;37.656;2022-09-09T19:34:29;14.00;;;7.20;;
43813;SDS011;29669;55.706;37.656;2022-09-09T19:37:51;8.90;;;4.38;;
43813;SDS011;29669;55.706;37.656;2022-09-09T19:41:06;11.38;;;4.68;;
43813;SDS011;29669;55.706;37.656;2022-09-09T19:44:29;12.40;;;7.07;;
43813;SDS011;29669;55.706;37.656;2022-09-09T19:47:50;10.05;;;5.55;;
43813;SDS011;29669;55.706;37.656;2022-09-09T19:51:12;25.40;;;8.95;;
43813;SDS011;29669;55.706;37.656;2022-09-09T19:54:36;16.05;;;5.35;;
43813;SDS011;29669;55.706;37.656;2022-09-09T19:57:57;11.35;;;5.18;;
43813;SDS011;29669;55.706;37.656;2022-09-09T20:01:19;7.97;;;4.47;;
43813;SDS011;29669;55.706;37.656;2022-09-09T20:08:09;12.23;;;5.13;;
43813;SDS011;29669;55.706;37.656;2022-09-09T20:11:30;13.40;;;4.90;;
43813;SDS011;29669;55.706;37.656;2022-09-09T20:14:51;21.88;;;6.30;;
43813;SDS011;29669;55.706;37.656;2022-09-09T20:18:12;19.23;;;5.15;;
43813;SDS011;29669;55.706;37.656;2022-09-09T20:21:34;20.20;;;7.85;;
43813;SDS011;29669;55.706;37.656;2022-09-09T20:25:02;17.10;;;7.80;;
43813;SDS011;29669;55.706;37.656;2022-09-09T20:28:23;27.23;;;7.85;;
43813;SDS011;29669;55.706;37.656;2022-09-09T20:31:44;17.90;;;6.57;;
43813;SDS011;29669;55.706;37.656;2022-09-09T20:35:05;21.77;;;6.30;;
43813;SDS011;29669;55.706;37.656;2022-09-09T20:38:26;19.38;;;5.47;;
43813;SDS011;29669;55.706;37.656;2022-09-09T20:41:47;15.63;;;5.95;;
43813;SDS011;29669;55.706;37.656;2022-09-09T20:45:09;14.82;;;5.88;;
43813;SDS011;29669;55.706;37.656;2022-09-09T20:48:31;18.33;;;6.55;;
43813;SDS011;29669;55.706;37.656;2022-09-09T20:51:54;18.55;;;6.88;;
43813;SDS011;29669;55.706;37.656;2022-09-09T20:55:15;34.60;;;7.82;;
43813;SDS011;29669;55.706;37.656;2022-09-09T20:58:36;18.63;;;7.55;;
43813;SDS011;29669;55.706;37.656;2022-09-09T21:01:58;19.58;;;5.50;;
43813;SDS011;29669;55.706;37.656;2022-09-09T21:05:19;23.02;;;5.70;;
43813;SDS011;29669;55.706;37.656;2022-09-09T21:08:41;33.22;;;7.90;;
43813;SDS011;29669;55.706;37.656;2022-09-09T21:12:03;25.13;;;6.82;;
43813;SDS011;29669;55.706;37.656;2022-09-09T21:15:24;22.02;;;6.28;;
43813;SDS011;29669;55.706;37.656;2022-09-09T21:18:45;23.00;;;7.38;;
43813;SDS011;29669;55.706;37.656;2022-09-09T21:22:07;26.20;;;8.02;;
43813;SDS011;29669;55.706;37.656;2022-09-09T21:25:28;25.92;;;9.23;;
43813;SDS011;29669;55.706;37.656;2022-09-09T21:28:49;20.10;;;7.30;;
43813;SDS011;29669;55.706;37.656;2022-09-09T21:32:10;19.67;;;7.75;;
43813;SDS011;29669;55.706;37.656;2022-09-09T21:35:33;31.50;;;7.60;;
43813;SDS011;29669;55.706;37.656;2022-09-09T21:38:55;21.52;;;7.93;;
43813;SDS011;29669;55.706;37.656;2022-09-09T21:42:16;28.50;;;7.00;;
43813;SDS011;29669;55.706;37.656;2022-09-09T21:45:38;26.48;;;7.78;;
43813;SDS011;29669;55.706;37.656;2022-09-09T21:48:59;26.42;;;8.52;;
43813;SDS011;29669;55.706;37.656;2022-09-09T21:52:20;18.95;;;7.70;;
43813;SDS011;29669;55.706;37.656;2022-09-09T21:55:41;18.98;;;7.53;;
43813;SDS011;29669;55.706;37.656;2022-09-09T21:59:03;24.52;;;7.72;;
43813;SDS011;29669;55.706;37.656;2022-09-09T22:02:24;23.65;;;7.07;;
43813;SDS011;29669;55.706;37.656;2022-09-09T22:05:48;13.75;;;5.43;;
43813;SDS011;29669;55.706;37.656;2022-09-09T22:09:09;13.35;;;5.40;;